Latest Weather Observations for Wudinna Airport

IDS60801

Issued at 7:01 pm CDT Wednesday 22 February 2017 (issued every 30 minutes, with the page automatically refreshed every 10 minutes)

About weather observations | Map of weather stations | Latest weather observations for SA | Other Formats
Station Details ID: 018083 Name: WUDINNA AERO Lat: -33.04 Lon: 135.45 Height: 86.4 m
Data from the previous 72 hours. | See also: Recent months at Wudinna Airport
Date/Time
CDT
Temp
°C
App
Temp
°C
Dew
Point
°C
Rel
Hum
%
Delta-T
°C
Wind Press
QNH
hPa
Press
MSL
hPa
Rain since
9am
mm
Dir  Spd
km/h
Gust
km/h
Spd
kts
Gust
kts
22/07:00pm 22.9 16.6 9.0 41 7.5 SW 32 44 17 24 1015.2 1014.8 0.0
22/06:30pm 23.7 16.9 7.8 36 8.4 WSW 33 43 18 23 1014.8 1014.4 0.0
22/06:00pm 24.6 17.8 7.7 34 9.0 WSW 33 44 18 24 1014.5 1014.1 0.0
22/05:30pm 25.1 17.7 6.8 31 9.6 WSW 35 54 19 29 1014.1 1013.7 0.0
22/05:27pm 25.7 19.0 7.3 31 9.7 WSW 32 54 17 29 1014.0 1013.6 0.0
22/05:00pm 25.8 18.9 6.4 29 10.1 W 32 46 17 25 1013.8 1013.4 0.0
22/04:30pm 26.1 18.9 5.7 27 10.5 W 33 44 18 24 1013.5 1013.1 0.0
22/04:00pm 26.8 19.3 4.6 24 11.3 WSW 33 46 18 25 1013.4 1013.0 0.0
22/03:30pm 26.9 19.7 5.8 26 11.0 WSW 33 48 18 26 1013.3 1012.9 0.0
22/03:03pm 26.4 19.4 5.9 27 10.6 W 32 43 17 23 1013.3 1012.9 0.0
22/03:00pm 26.5 20.4 6.5 28 10.5 W 28 43 15 23 1013.3 1012.9 0.0
22/02:30pm 26.8 19.5 4.6 24 11.3 WSW 32 46 17 25 1013.4 1013.0 0.0
22/02:18pm 26.4 19.2 5.9 27 10.6 W 33 52 18 28 1013.3 1012.9 0.0
22/02:00pm 26.2 19.1 5.7 27 10.6 WSW 32 44 17 24 1013.3 1012.9 0.0
22/01:42pm 26.3 19.2 6.4 28 10.4 W 33 65 18 35 1013.1 1012.7 0.0
22/01:30pm 26.2 19.1 5.7 27 10.6 W 32 46 17 25 1013.2 1012.8 0.0
22/01:00pm 24.8 18.2 6.1 30 9.6 W 30 44 16 24 1013.3 1012.9 0.0
22/12:30pm 25.0 17.9 6.2 30 9.7 W 33 46 18 25 1013.4 1013.0 0.0
22/12:17pm 24.5 18.2 5.8 30 9.6 W 28 46 15 25 1013.5 1013.1 0.0
22/12:00pm 23.6 17.8 6.4 33 8.9 W 26 39 14 21 1013.6 1013.2 0.0
22/11:30am 22.0 15.6 5.4 34 8.3 W 28 41 15 22 1013.8 1013.4 0.0
22/11:01am 23.7 17.4 5.6 31 9.2 W 28 57 15 31 1013.5 1013.1 0.0
22/11:00am 23.9 17.8 6.7 33 8.9 W 28 35 15 19 1013.5 1013.1 0.0
22/10:30am 22.1 16.3 7.9 40 7.4 WSW 28 46 15 25 1013.3 1012.9 0.0
22/10:27am 22.7 16.9 8.0 39 7.8 WSW 28 46 15 25 1013.3 1012.9 0.0
22/10:00am 21.5 16.0 9.1 45 6.6 W 28 35 15 19 1013.2 1012.8 0.0
22/09:30am 20.8 14.9 9.1 47 6.2 W 30 39 16 21 1013.1 1012.7 0.0
22/09:00am 20.1 15.3 11.6 58 4.7 W 28 33 15 18 1013.0 1012.6 0.0
22/08:30am 19.6 14.9 13.3 67 3.6 WSW 30 39 16 21 1012.9 1012.5 0.0
22/08:00am 19.9 16.5 14.7 72 3.0 WSW 26 35 14 19 1012.3 1011.9 0.0
22/07:30am 19.3 16.7 15.0 76 2.5 WSW 22 32 12 17 1011.7 1011.3 0.0
22/07:00am 19.3 14.8 14.8 75 2.6 WSW 32 41 17 22 1010.7 1010.3 0.0
22/06:30am 19.6 13.5 14.2 71 3.1 W 39 50 21 27 1009.7 1009.3 0.0
22/06:11am 21.8 15.9 11.2 51 5.9 WNW 33 54 18 29 1008.8 1008.4 0.0
22/06:08am 23.8 17.3 4.7 29 9.5 NW 28 54 15 29 1008.5 1008.1 0.0
22/06:00am 24.0 17.0 -0.3 20 11.1 NW 26 32 14 17 1008.1 1007.7 0.0
22/05:30am 25.9 18.1 -1.0 17 12.3 NW 30 43 16 23 1006.9 1006.5 0.0
22/05:20am 25.7 17.8 -1.2 17 12.2 N 30 39 16 21 1006.9 1006.5 0.0
22/05:00am 26.3 17.2 -0.7 17 12.4 N 37 54 20 29 1005.0 1004.6 0.0
22/04:30am 26.5 17.3 -1.3 16 12.7 N 37 54 20 29 1004.4 1004.0 0.0
22/04:15am 26.8 17.6 -1.1 16 12.8 N 37 56 20 30 1004.4 1004.0 0.0
22/04:00am 26.4 17.3 -0.6 17 12.5 N 37 46 20 25 1004.4 1004.0 0.0
22/03:30am 26.4 17.3 -0.6 17 12.5 N 37 50 20 27 1004.7 1004.3 0.0
22/03:00am 26.6 18.0 0.4 18 12.4 N 35 46 19 25 1005.2 1004.8 0.0
22/02:30am 26.6 18.0 0.4 18 12.4 NNE 35 46 19 25 1005.8 1005.4 0.0
22/02:00am 26.3 19.1 0.9 19 12.0 NNE 28 41 15 22 1006.4 1006.0 0.0
22/01:30am 24.6 18.7 1.5 22 11.0 NNE 22 32 12 17 1006.9 1006.5 0.0
22/01:00am 23.9 19.0 2.1 24 10.4 NNE 17 22 9 12 1007.7 1007.3 0.0
22/12:30am 24.8 19.9 1.7 22 11.0 NNE 17 24 9 13 1008.3 1007.9 0.0
22/12:00am 25.9 20.0 1.9 21 11.6 NNE 22 28 12 15 1008.7 1008.3 0.0
 
Date/Time
CDT
Temp
°C
App
Temp
°C
Dew
Point
°C
Rel
Hum
%
Delta-T
°C
Wind Press
QNH
hPa
Press
MSL
hPa
Rain since
9am
mm
Dir  Spd
km/h
Gust
km/h
Spd
kts
Gust
kts
21/11:30pm 26.2 20.4 2.2 21 11.7 NNE 22 28 12 15 1008.9 1008.5 0.0
21/11:00pm 25.5 20.2 2.9 23 11.1 NE 20 26 11 14 1009.1 1008.7 0.0
21/10:30pm 23.3 19.0 3.3 27 9.7 NE 15 17 8 9 1009.5 1009.1 0.0
21/10:00pm 22.7 18.4 3.3 28 9.4 NE 15 17 8 9 1009.8 1009.4 0.0
21/09:30pm 23.7 19.4 3.1 26 10.0 NE 15 17 8 9 1009.7 1009.3 0.0
21/09:00pm 26.4 22.1 3.0 22 11.6 NNE 15 19 8 10 1009.6 1009.2 0.0
21/08:30pm 28.6 23.8 2.7 19 12.9 NNE 17 22 9 12 1009.3 1008.9 0.0
21/08:00pm 30.3 24.5 2.5 17 13.9 NNE 22 30 12 16 1009.2 1008.8 0.0
21/07:30pm 31.5 25.6 1.8 15 14.9 N 22 32 12 17 1009.1 1008.7 0.0
21/07:00pm 32.4 25.9 2.5 15 15.2 N 26 37 14 20 1009.1 1008.7 0.0
21/06:30pm 33.3 28.0 3.2 15 15.6 N 20 28 11 15 1009.2 1008.8 0.0
21/06:00pm 33.2 27.5 3.1 15 15.5 N 22 35 12 19 1009.3 1008.9 0.0
21/05:30pm 33.4 27.8 3.3 15 15.6 N 22 35 12 19 1009.5 1009.1 0.0
21/05:00pm 33.9 28.7 3.7 15 15.8 N 20 32 11 17 1009.6 1009.2 0.0
21/04:30pm 33.7 28.1 3.5 15 15.7 NNE 22 33 12 18 1010.1 1009.7 0.0
21/04:00pm 33.2 27.9 3.1 15 15.5 N 20 33 11 18 1010.7 1010.3 0.0
21/03:30pm 32.6 27.4 3.5 16 15.1 NNE 20 35 11 19 1011.2 1010.8 0.0
21/03:00pm 32.6 27.2 2.6 15 15.3 NNE 20 33 11 18 1011.8 1011.4 0.0
21/02:30pm 33.0 28.1 3.9 16 15.2 N 19 28 10 15 1012.4 1012.0 0.0
21/02:00pm 31.6 26.8 4.4 18 14.2 N 19 32 10 17 1013.0 1012.6 0.0
21/01:30pm 31.5 26.4 4.3 18 14.2 NNW 20 35 11 19 1013.6 1013.2 0.0
21/01:00pm 29.8 24.8 4.4 20 13.1 NNW 20 30 11 16 1014.2 1013.8 0.0
21/12:30pm 29.8 24.9 5.1 21 12.9 NNW 20 32 11 17 1014.8 1014.4 0.0
21/12:00pm 28.7 23.4 4.9 22 12.3 N 22 32 12 17 1015.2 1014.8 0.0
21/11:30am 28.9 23.1 4.4 21 12.6 N 24 39 13 21 1015.6 1015.2 0.0
21/11:00am 27.5 22.0 7.4 28 10.8 N 26 35 14 19 1015.9 1015.5 0.0
21/10:30am 25.9 20.0 7.5 31 9.8 N 28 35 15 19 1016.1 1015.7 0.0
21/10:00am 24.3 18.1 7.9 35 8.7 N 30 37 16 20 1016.4 1016.0 0.0
21/09:30am 23.0 17.6 9.4 42 7.4 NNE 28 37 15 20 1016.6 1016.2 0.0
21/09:00am 21.3 15.8 9.2 46 6.5 NNE 28 37 15 20 1016.7 1016.3 0.0
21/08:30am 19.3 16.1 10.0 55 5.0 NE 17 28 9 15 1016.7 1016.3 0.0
21/08:00am 16.9 14.6 10.5 66 3.4 ENE 13 19 7 10 1016.4 1016.0 0.0
21/07:30am 14.8 12.5 10.6 76 2.2 ENE 13 17 7 9 1016.1 1015.7 0.0
21/07:00am 13.9 12.4 10.5 80 1.8 ENE 9 13 5 7 1015.9 1015.5 0.0
21/06:30am 13.7 12.6 10.1 79 1.9 ENE 6 9 3 5 1015.9 1015.5 0.0
21/06:00am 13.9 12.6 10.1 78 2.0 ENE 7 9 4 5 1015.5 1015.1 0.0
21/05:30am 14.0 12.8 10.2 78 2.0 NE 7 15 4 8 1015.5 1015.1 0.0
21/05:00am 14.8 13.3 10.6 76 2.2 ENE 9 13 5 7 1015.8 1015.4 0.0
21/04:30am 14.3 12.6 9.9 75 2.3 ENE 9 13 5 7 1015.7 1015.3 0.0
21/04:00am 14.1 12.3 9.5 74 2.4 NE 9 11 5 6 1016.0 1015.6 0.0
21/03:30am 13.6 11.7 9.1 74 2.3 E 9 11 5 6 1016.2 1015.8 0.0
21/03:00am 13.6 11.3 9.1 74 2.3 E 11 13 6 7 1016.6 1016.2 0.0
21/02:30am 14.0 12.5 9.0 72 2.5 ESE 7 9 4 5 1016.9 1016.5 0.0
21/02:00am 14.3 12.4 9.1 71 2.7 E 9 11 5 6 1017.0 1016.6 0.0
21/01:30am 14.7 12.8 9.1 69 2.9 E 9 13 5 7 1017.0 1016.6 0.0
21/01:00am 15.4 13.6 9.3 67 3.2 E 9 15 5 8 1017.2 1016.8 0.0
21/12:30am 16.0 13.8 9.4 65 3.4 ESE 11 17 6 9 1017.4 1017.0 0.0
21/12:00am 16.6 14.8 9.5 63 3.7 ESE 9 13 5 7 1017.5 1017.2 0.0
 
Date/Time
CDT
Temp
°C
App
Temp
°C
Dew
Point
°C
Rel
Hum
%
Delta-T
°C
Wind Press
QNH
hPa
Press
MSL
hPa
Rain since
9am
mm
Dir  Spd
km/h
Gust
km/h
Spd
kts
Gust
kts
20/11:30pm 17.3 14.8 9.7 61 4.0 ESE 13 19 7 10 1017.7 1017.4 0.0
20/11:00pm 17.8 15.0 9.9 60 4.2 ESE 15 24 8 13 1017.8 1017.5 0.0
20/10:30pm 18.2 15.3 9.8 58 4.5 SE 15 20 8 11 1017.6 1017.3 0.0
20/10:00pm 17.7 15.0 9.1 57 4.5 S 13 17 7 9 1017.6 1017.3 0.0
20/09:30pm 18.4 14.9 8.9 54 5.0 SSW 17 22 9 12 1017.4 1017.0 0.0
20/09:00pm 19.3 15.5 8.9 51 5.5 SSW 19 24 10 13 1017.0 1016.6 0.0
20/08:30pm 20.2 16.1 8.5 47 6.1 SSW 20 26 11 14 1016.7 1016.3 0.0
20/08:00pm 21.4 16.3 7.6 41 7.2 S 24 33 13 18 1016.2 1015.8 0.0
20/07:30pm 23.2 17.5 6.9 35 8.4 S 26 35 14 19 1015.9 1015.5 0.0
20/07:27pm 23.5 18.2 6.7 34 8.7 S 24 33 13 18 1015.8 1015.4 0.0
20/07:00pm 25.6 23.0 6.3 29 10.0 SW 9 15 5 8 1015.4 1015.0 0.0
20/06:30pm 25.6 23.2 5.2 27 10.4 SSW 7 11 4 6 1015.4 1015.0 0.0
20/06:00pm 25.6 22.8 5.2 27 10.4 S 9 17 5 9 1015.5 1015.1 0.0
20/05:30pm 25.7 22.1 4.8 26 10.6 SW 13 17 7 9 1015.4 1015.0 0.0
20/05:00pm 25.7 22.5 5.3 27 10.4 SW 11 20 6 11 1015.4 1015.0 0.0
20/04:30pm 25.1 22.6 4.8 27 10.2 W 7 17 4 9 1015.6 1015.2 0.0
20/04:00pm 25.2 22.1 5.4 28 10.1 S 11 19 6 10 1016.0 1015.6 0.0
20/03:30pm 24.5 21.5 5.8 30 9.6 SE 11 17 6 9 1016.3 1015.9 0.0
20/03:00pm 23.7 21.0 5.6 31 9.2 SSE 9 22 5 12 1016.7 1016.3 0.0
20/02:30pm 23.1 20.1 6.0 33 8.7 SW 11 20 6 11 1017.1 1016.7 0.0
20/02:00pm 23.7 21.6 6.5 33 8.9 SE 7 11 4 6 1017.3 1016.9 0.0
20/01:30pm 22.0 18.6 5.8 35 8.1 SSW 13 19 7 10 1017.6 1017.3 0.0
20/01:00pm 21.8 18.5 6.5 37 7.8 SSW 13 22 7 12 1018.0 1017.7 0.0
20/12:30pm 20.8 18.0 7.1 41 7.0 SSW 11 17 6 9 1018.4 1018.1 0.0
20/12:00pm 20.2 17.5 7.2 43 6.6 ENE 11 17 6 9 1018.7 1018.4 0.0
20/11:30am 19.7 17.3 7.1 44 6.4 NNW 9 15 5 8 1019.2 1018.8 0.0
20/11:00am 18.6 16.5 6.8 46 5.9 WSW 7 15 4 8 1019.5 1019.1 0.0
20/10:30am 18.4 16.3 8.1 51 5.3 S 9 15 5 8 1019.8 1019.4 0.0
20/10:00am 17.2 14.5 7.3 52 5.0 S 11 17 6 9 1020.0 1019.6 0.0
20/09:30am 16.5 14.5 8.5 59 4.1 S 9 17 5 9 1020.1 1019.7 0.0
20/09:00am 15.6 14.7 9.3 66 3.3 W 4 7 2 4 1020.0 1019.6 0.0
20/08:30am 13.0 13.1 10.2 83 1.4 CALM 0 0 0 0 1019.9 1019.5 0.0
20/08:00am 9.2 7.9 7.8 91 0.7 NE 4 6 2 3 1019.7 1019.3 0.0
20/07:30am 6.8 5.8 5.4 91 0.6 CALM 0 0 0 0 1019.4 1019.0 0.0
20/07:00am 6.5 4.1 5.1 91 0.6 NNE 7 9 4 5 1018.7 1018.4 0.0
20/06:30am 6.8 4.4 5.4 91 0.6 NNE 7 7 4 4 1018.6 1018.3 0.0
20/06:00am 6.8 4.6 5.3 90 0.7 NNE 6 7 3 4 1018.4 1018.1 0.0
20/05:30am 7.0 5.9 5.3 89 0.8 CALM 0 2 0 1 1018.2 1017.9 0.0
20/05:00am 6.9 4.7 5.1 88 0.8 NNE 6 7 3 4 1018.2 1017.9 0.0
20/04:30am 7.6 6.6 5.6 87 0.9 CALM 0 0 0 0 1018.1 1017.8 0.0
20/04:00am 7.8 6.8 5.4 85 1.1 CALM 0 0 0 0 1018.2 1017.9 0.0
20/03:30am 9.1 8.3 6.4 83 1.3 CALM 0 0 0 0 1018.1 1017.8 0.0
20/03:00am 10.7 8.9 8.1 84 1.3 SW 7 9 4 5 1018.1 1017.8 0.0
20/02:30am 12.1 10.5 8.8 80 1.6 SE 7 11 4 6 1018.1 1017.8 0.0
20/02:00am 12.9 11.5 9.0 77 2.0 SSW 6 7 3 4 1018.5 1018.2 0.0
20/01:30am 12.5 10.6 9.0 79 1.8 SW 9 11 5 6 1018.8 1018.5 0.0
20/01:00am 13.0 11.4 8.9 76 2.1 SW 7 9 4 5 1019.2 1018.8 0.0
20/12:30am 13.4 11.2 9.5 77 2.0 WSW 11 13 6 7 1019.4 1019.0 0.0
20/12:00am 13.7 11.1 9.2 74 2.3 SSW 13 15 7 8 1019.3 1018.9 0.0
 
Date/Time
CDT
Temp
°C
App
Temp
°C
Dew
Point
°C
Rel
Hum
%
Delta-T
°C
Wind Press
QNH
hPa
Press
MSL
hPa
Rain since
9am
mm
Dir  Spd
km/h
Gust
km/h
Spd
kts
Gust
kts
19/11:30pm 14.2 11.6 9.2 72 2.6 SSW 13 15 7 8 1019.5 1019.1 0.0
19/11:00pm 14.5 11.8 8.9 69 2.9 S 13 17 7 9 1019.6 1019.2 0.0
19/10:30pm 15.4 11.8 8.2 62 3.6 SSW 17 22 9 12 1019.6 1019.2 0.0
19/10:00pm 16.4 12.2 8.1 58 4.2 SSW 20 24 11 13 1019.6 1019.2 0.0
19/09:30pm 16.7 12.7 8.4 58 4.2 SSW 19 26 10 14 1019.4 1019.0 0.0
19/09:00pm 16.5 12.4 8.7 60 4.0 SSW 20 30 11 16 1019.0 1018.7 0.0
19/08:30pm 17.4 12.3 7.5 52 5.0 SW 24 32 13 17 1019.0 1018.7 0.0
19/08:00pm 17.8 12.3 7.5 51 5.2 SW 26 33 14 18 1018.8 1018.5 0.0
19/07:30pm 18.4 12.3 6.6 46 5.9 SSW 28 37 15 20 1018.4 1018.1 0.0

Other Formats:

Comma delimited format used in spreadsheet applications
http://www.bom.gov.au/fwo/IDS60801/IDS60801.95654.axf

JavaScript Object Notation format (JSON) in row-major order
http://www.bom.gov.au/fwo/IDS60801/IDS60801.95654.json